sensor_id;sensor_type;location;lat;lon;timestamp;pressure;altitude;pressure_sealevel;temperature;humidity
63731;BME280;49747;51.334;6.830;2023-02-28T00:00:42;102487.72;;;9.25;45.07
63731;BME280;49747;51.334;6.830;2023-02-28T00:03:09;102472.94;;;9.20;45.09
63731;BME280;49747;51.334;6.830;2023-02-28T00:05:35;102482.44;;;9.25;44.49
63731;BME280;49747;51.334;6.830;2023-02-28T00:08:02;102482.44;;;9.25;45.16
63731;BME280;49747;51.334;6.830;2023-02-28T00:10:30;102478.03;;;9.26;45.10
63731;BME280;49747;51.334;6.830;2023-02-28T00:13:03;102478.06;;;9.24;45.05
63731;BME280;49747;51.334;6.830;2023-02-28T00:15:31;102479.78;;;9.25;45.14
63731;BME280;49747;51.334;6.830;2023-02-28T00:17:57;102477.00;;;9.28;44.82
63731;BME280;49747;51.334;6.830;2023-02-28T00:20:24;102482.31;;;9.28;45.26
63731;BME280;49747;51.334;6.830;2023-02-28T00:22:51;102482.31;;;9.28;45.22
63731;BME280;49747;51.334;6.830;2023-02-28T00:25:21;102484.97;;;9.28;44.79
63731;BME280;49747;51.334;6.830;2023-02-28T00:27:48;102479.75;;;9.27;45.49
63731;BME280;49747;51.334;6.830;2023-02-28T00:30:17;102483.25;;;9.27;45.39
63731;BME280;49747;51.334;6.830;2023-02-28T00:32:44;102485.91;;;9.27;45.57
63731;BME280;49747;51.334;6.830;2023-02-28T00:35:11;102479.66;;;9.28;45.31
63731;BME280;49747;51.334;6.830;2023-02-28T00:37:40;102489.41;;;9.28;45.50
63731;BME280;49747;51.334;6.830;2023-02-28T00:40:08;102484.19;;;9.26;45.52
63731;BME280;49747;51.334;6.830;2023-02-28T00:42:35;102480.59;;;9.27;45.40
63731;BME280;49747;51.334;6.830;2023-02-28T00:45:03;102481.53;;;9.26;45.82
63731;BME280;49747;51.334;6.830;2023-02-28T00:47:32;102485.91;;;9.27;45.51
63731;BME280;49747;51.334;6.830;2023-02-28T00:49:59;102474.53;;;9.24;45.28
63731;BME280;49747;51.334;6.830;2023-02-28T00:52:27;102477.19;;;9.24;45.49
63731;BME280;49747;51.334;6.830;2023-02-28T00:54:53;102477.28;;;9.22;45.50
63731;BME280;49747;51.334;6.830;2023-02-28T00:57:20;102477.28;;;9.22;45.56
63731;BME280;49747;51.334;6.830;2023-02-28T00:59:47;102473.91;;;9.17;45.65
63731;BME280;49747;51.334;6.830;2023-02-28T01:02:13;102480.09;;;9.18;45.24
63731;BME280;49747;51.334;6.830;2023-02-28T01:04:40;102482.75;;;9.18;44.76
63731;BME280;49747;51.334;6.830;2023-02-28T01:07:06;102491.56;;;9.18;45.16
63731;BME280;49747;51.334;6.830;2023-02-28T01:09:33;102488.97;;;9.17;44.92
63731;BME280;49747;51.334;6.830;2023-02-28T01:11:59;102484.69;;;9.12;44.89
63731;BME280;49747;51.334;6.830;2023-02-28T01:14:25;102486.41;;;9.13;44.76
63731;BME280;49747;51.334;6.830;2023-02-28T01:16:52;102491.72;;;9.13;44.88
63731;BME280;49747;51.334;6.830;2023-02-28T01:19:18;102495.38;;;9.11;44.82
63731;BME280;49747;51.334;6.830;2023-02-28T01:21:45;102490.84;;;9.13;45.67
63731;BME280;49747;51.334;6.830;2023-02-28T01:24:12;102490.00;;;9.12;46.15
63731;BME280;49747;51.334;6.830;2023-02-28T01:26:38;102495.38;;;9.11;46.39
63731;BME280;49747;51.334;6.830;2023-02-28T01:29:06;102491.91;;;9.09;45.63
63731;BME280;49747;51.334;6.830;2023-02-28T01:31:32;102489.38;;;9.06;45.76
63731;BME280;49747;51.334;6.830;2023-02-28T01:33:59;102486.66;;;9.07;45.90
63731;BME280;49747;51.334;6.830;2023-02-28T01:36:27;102493.81;;;9.05;45.85
63731;BME280;49747;51.334;6.830;2023-02-28T01:38:54;102491.97;;;9.07;45.15
63731;BME280;49747;51.334;6.830;2023-02-28T01:41:25;102493.81;;;9.05;45.26
63731;BME280;49747;51.334;6.830;2023-02-28T01:43:55;102495.59;;;9.05;45.33
63731;BME280;49747;51.334;6.830;2023-02-28T01:46:22;102492.16;;;9.03;45.05
63731;BME280;49747;51.334;6.830;2023-02-28T01:51:48;102486.88;;;9.01;45.36
63731;BME280;49747;51.334;6.830;2023-02-28T01:54:37;102476.63;;;8.92;45.36
63731;BME280;49747;51.334;6.830;2023-02-28T01:57:17;102481.84;;;8.95;45.68
63731;BME280;49747;51.334;6.830;2023-02-28T02:00:07;102481.06;;;8.92;45.62
63731;BME280;49747;51.334;6.830;2023-02-28T02:02:38;102484.56;;;8.94;45.71
63731;BME280;49747;51.334;6.830;2023-02-28T02:05:10;102487.19;;;8.94;45.88
63731;BME280;49747;51.334;6.830;2023-02-28T02:07:40;102481.84;;;8.95;45.78
63731;BME280;49747;51.334;6.830;2023-02-28T02:10:13;102465.34;;;8.87;45.81
63731;BME280;49747;51.334;6.830;2023-02-28T02:15:53;102475.72;;;8.93;45.60
63731;BME280;49747;51.334;6.830;2023-02-28T02:18:43;102469.63;;;8.91;45.75
63731;BME280;49747;51.334;6.830;2023-02-28T02:29:31;102459.06;;;8.89;46.19
63731;BME280;49747;51.334;6.830;2023-02-28T02:37:32;102447.66;;;8.87;46.21
63731;BME280;49747;51.334;6.830;2023-02-28T02:40:25;102448.63;;;8.85;46.40
63731;BME280;49747;51.334;6.830;2023-02-28T02:45:35;102459.06;;;8.89;46.62
63731;BME280;49747;51.334;6.830;2023-02-28T02:48:07;102452.09;;;8.87;46.38
63731;BME280;49747;51.334;6.830;2023-02-28T02:50:43;102448.53;;;8.88;45.96
63731;BME280;49747;51.334;6.830;2023-02-28T02:53:10;102445.78;;;8.89;45.77
63731;BME280;49747;51.334;6.830;2023-02-28T02:55:41;102443.47;;;8.82;45.57
63731;BME280;49747;51.334;6.830;2023-02-28T02:58:18;102450.41;;;8.84;45.43
63731;BME280;49747;51.334;6.830;2023-02-28T03:00:50;102454.84;;;8.84;45.30
63731;BME280;49747;51.334;6.830;2023-02-28T03:03:19;102467.19;;;8.85;45.50
63731;BME280;49747;51.334;6.830;2023-02-28T03:05:59;102459.31;;;8.83;45.80
63731;BME280;49747;51.334;6.830;2023-02-28T03:08:27;102449.16;;;8.71;45.60
63731;BME280;49747;51.334;6.830;2023-02-28T03:10:57;102448.91;;;8.77;45.11
63731;BME280;49747;51.334;6.830;2023-02-28T03:19:45;102457.75;;;8.78;45.17
63731;BME280;49747;51.334;6.830;2023-02-28T03:24:57;102455.13;;;8.76;45.27
63731;BME280;49747;51.334;6.830;2023-02-28T03:27:41;102453.34;;;8.77;45.67
63731;BME280;49747;51.334;6.830;2023-02-28T03:35:24;102458.72;;;8.75;45.75
63731;BME280;49747;51.334;6.830;2023-02-28T03:38:00;102460.53;;;8.73;45.28
63731;BME280;49747;51.334;6.830;2023-02-28T03:40:32;102450.97;;;8.69;45.25
63731;BME280;49747;51.334;6.830;2023-02-28T03:43:03;102456.19;;;8.72;45.44
63731;BME280;49747;51.334;6.830;2023-02-28T03:45:34;102449.31;;;8.67;45.53
63731;BME280;49747;51.334;6.830;2023-02-28T03:48:09;102451.91;;;8.68;45.64
63731;BME280;49747;51.334;6.830;2023-02-28T03:50:43;102454.50;;;8.70;45.60
63731;BME280;49747;51.334;6.830;2023-02-28T03:53:13;102456.28;;;8.69;45.54
63731;BME280;49747;51.334;6.830;2023-02-28T03:56:31;102456.28;;;8.69;45.43
63731;BME280;49747;51.334;6.830;2023-02-28T04:01:30;102460.88;;;8.64;45.67
63731;BME280;49747;51.334;6.830;2023-02-28T04:03:59;102467.06;;;8.64;45.60
63731;BME280;49747;51.334;6.830;2023-02-28T04:06:25;102460.88;;;8.64;45.67
63731;BME280;49747;51.334;6.830;2023-02-28T04:08:53;102469.81;;;8.61;45.51
63731;BME280;49747;51.334;6.830;2023-02-28T04:13:49;102456.56;;;8.61;45.92
63731;BME280;49747;51.334;6.830;2023-02-28T04:16:16;102450.38;;;8.62;46.11
63731;BME280;49747;51.334;6.830;2023-02-28T04:19:00;102455.78;;;8.59;45.70
63731;BME280;49747;51.334;6.830;2023-02-28T04:21:33;102456.03;;;8.52;46.10
63731;BME280;49747;51.334;6.830;2023-02-28T04:23:59;102465.72;;;8.53;45.82
63731;BME280;49747;51.334;6.830;2023-02-28T04:26:34;102468.31;;;8.54;45.67
63731;BME280;49747;51.334;6.830;2023-02-28T04:29:01;102468.31;;;8.54;45.81
63731;BME280;49747;51.334;6.830;2023-02-28T04:31:28;102467.47;;;8.54;45.65
63731;BME280;49747;51.334;6.830;2023-02-28T04:33:55;102462.25;;;8.51;45.40
63731;BME280;49747;51.334;6.830;2023-02-28T04:36:21;102471.00;;;8.53;45.81
63731;BME280;49747;51.334;6.830;2023-02-28T04:38:49;102475.53;;;8.49;46.23
63731;BME280;49747;51.334;6.830;2023-02-28T04:41:16;102468.50;;;8.50;46.77
63731;BME280;49747;51.334;6.830;2023-02-28T04:43:43;102473.78;;;8.50;45.74
63731;BME280;49747;51.334;6.830;2023-02-28T04:46:09;102469.50;;;8.46;45.94
63731;BME280;49747;51.334;6.830;2023-02-28T04:48:38;102473.03;;;8.46;46.22
63731;BME280;49747;51.334;6.830;2023-02-28T04:51:10;102471.19;;;8.48;46.00
63731;BME280;49747;51.334;6.830;2023-02-28T04:53:38;102478.16;;;8.51;45.80
63731;BME280;49747;51.334;6.830;2023-02-28T04:56:05;102473.94;;;8.45;45.80
63731;BME280;49747;51.334;6.830;2023-02-28T04:58:32;102480.84;;;8.49;45.88
63731;BME280;49747;51.334;6.830;2023-02-28T05:01:05;102479.97;;;8.49;45.38
63731;BME280;49747;51.334;6.830;2023-02-28T05:03:39;102474.00;;;8.44;45.25
63731;BME280;49747;51.334;6.830;2023-02-28T05:06:10;102480.97;;;8.46;45.35
63731;BME280;49747;51.334;6.830;2023-02-28T05:08:37;102483.56;;;8.48;44.97
63731;BME280;49747;51.334;6.830;2023-02-28T05:11:07;102478.38;;;8.45;44.87
63731;BME280;49747;51.334;6.830;2023-02-28T05:13:38;102470.59;;;8.40;45.03
63731;BME280;49747;51.334;6.830;2023-02-28T05:16:04;102482.81;;;8.44;44.92
63731;BME280;49747;51.334;6.830;2023-02-28T05:18:31;102482.81;;;8.44;44.95
63731;BME280;49747;51.334;6.830;2023-02-28T05:20:57;102481.00;;;8.45;45.28
63731;BME280;49747;51.334;6.830;2023-02-28T05:23:24;102491.66;;;8.43;45.05
63731;BME280;49747;51.334;6.830;2023-02-28T05:25:50;102484.53;;;8.45;44.86
63731;BME280;49747;51.334;6.830;2023-02-28T05:28:18;102482.81;;;8.44;45.26
63731;BME280;49747;51.334;6.830;2023-02-28T05:30:45;102488.16;;;8.43;45.31
63731;BME280;49747;51.334;6.830;2023-02-28T05:33:12;102507.56;;;8.43;44.95
63731;BME280;49747;51.334;6.830;2023-02-28T05:35:40;102498.75;;;8.43;44.85
63731;BME280;49747;51.334;6.830;2023-02-28T05:38:07;102498.03;;;8.37;44.75
63731;BME280;49747;51.334;6.830;2023-02-28T05:40:34;102496.38;;;8.33;44.77
63731;BME280;49747;51.334;6.830;2023-02-28T05:43:00;102497.16;;;8.37;44.99
63731;BME280;49747;51.334;6.830;2023-02-28T05:45:27;102498.94;;;8.36;44.79
63731;BME280;49747;51.334;6.830;2023-02-28T05:47:54;102509.50;;;8.38;44.81
63731;BME280;49747;51.334;6.830;2023-02-28T05:50:21;102499.94;;;8.32;44.63
63731;BME280;49747;51.334;6.830;2023-02-28T05:52:51;102493.94;;;8.27;44.61
63731;BME280;49747;51.334;6.830;2023-02-28T05:55:17;102503.47;;;8.33;44.54
63731;BME280;49747;51.334;6.830;2023-02-28T05:57:45;102506.34;;;8.27;44.56
63731;BME280;49747;51.334;6.830;2023-02-28T06:00:12;102508.13;;;8.26;44.42
63731;BME280;49747;51.334;6.830;2023-02-28T06:02:41;102502.09;;;8.21;44.45
63731;BME280;49747;51.334;6.830;2023-02-28T06:05:14;102513.34;;;8.28;44.64
63731;BME280;49747;51.334;6.830;2023-02-28T06:07:41;102509.00;;;8.25;44.34
63731;BME280;49747;51.334;6.830;2023-02-28T06:10:09;102515.16;;;8.26;44.38
63731;BME280;49747;51.334;6.830;2023-02-28T06:12:36;102512.59;;;8.24;44.28
63731;BME280;49747;51.334;6.830;2023-02-28T06:15:03;102527.63;;;8.24;44.25
63731;BME280;49747;51.334;6.830;2023-02-28T06:17:30;102527.50;;;8.27;44.53
63731;BME280;49747;51.334;6.830;2023-02-28T06:19:56;102533.78;;;8.24;44.20
63731;BME280;49747;51.334;6.830;2023-02-28T06:22:22;102534.69;;;8.23;44.63
63731;BME280;49747;51.334;6.830;2023-02-28T06:24:49;102535.81;;;8.16;44.45
63731;BME280;49747;51.334;6.830;2023-02-28T06:27:15;102535.75;;;8.18;44.42
63731;BME280;49747;51.334;6.830;2023-02-28T06:29:42;102538.19;;;8.24;44.22
63731;BME280;49747;51.334;6.830;2023-02-28T06:32:08;102532.13;;;8.20;44.08
63731;BME280;49747;51.334;6.830;2023-02-28T06:34:35;102535.63;;;8.22;44.26
63731;BME280;49747;51.334;6.830;2023-02-28T06:37:02;102537.28;;;8.25;44.40
63731;BME280;49747;51.334;6.830;2023-02-28T06:39:29;102538.19;;;8.24;44.05
63731;BME280;49747;51.334;6.830;2023-02-28T06:41:56;102540.75;;;8.27;44.87
63731;BME280;49747;51.334;6.830;2023-02-28T06:44:23;102542.34;;;7.20;45.98
63731;BME280;49747;51.334;6.830;2023-02-28T06:46:50;102530.13;;;9.50;100.00
63731;BME280;49747;51.334;6.830;2023-02-28T06:49:17;102548.41;;;8.61;51.71
63731;BME280;49747;51.334;6.830;2023-02-28T06:51:44;102543.34;;;7.74;49.33
63731;BME280;49747;51.334;6.830;2023-02-28T06:54:13;102553.44;;;7.89;47.99
63731;BME280;49747;51.334;6.830;2023-02-28T06:56:40;102546.19;;;7.39;47.80
63731;BME280;49747;51.334;6.830;2023-02-28T06:59:06;102552.19;;;7.15;48.01
63731;BME280;49747;51.334;6.830;2023-02-28T07:01:34;102556.94;;;6.70;49.06
63731;BME280;49747;51.334;6.830;2023-02-28T07:04:01;102557.28;;;6.90;48.52
63731;BME280;49747;51.334;6.830;2023-02-28T07:06:27;102562.47;;;6.93;48.67
63731;BME280;49747;51.334;6.830;2023-02-28T07:08:54;102561.25;;;7.06;48.20
63731;BME280;49747;51.334;6.830;2023-02-28T07:11:22;102564.41;;;7.49;47.53
63731;BME280;49747;51.334;6.830;2023-02-28T07:13:49;102562.31;;;7.30;47.43
63731;BME280;49747;51.334;6.830;2023-02-28T07:16:17;102568.59;;;7.26;47.16
63731;BME280;49747;51.334;6.830;2023-02-28T07:18:44;102564.94;;;7.60;46.58
63731;BME280;49747;51.334;6.830;2023-02-28T07:21:10;102560.72;;;7.54;46.72
63731;BME280;49747;51.334;6.830;2023-02-28T07:23:38;102558.78;;;7.30;46.82
63731;BME280;49747;51.334;6.830;2023-02-28T07:26:06;102564.06;;;7.30;47.25
63731;BME280;49747;51.334;6.830;2023-02-28T07:28:33;102559.91;;;6.91;47.56
63731;BME280;49747;51.334;6.830;2023-02-28T07:31:04;102570.56;;;7.18;47.78
63731;BME280;49747;51.334;6.830;2023-02-28T07:33:31;102575.44;;;7.33;47.07
63731;BME280;49747;51.334;6.830;2023-02-28T07:36:09;102568.13;;;7.71;46.17
63731;BME280;49747;51.334;6.830;2023-02-28T07:38:41;102568.06;;;8.01;45.53
63731;BME280;49747;51.334;6.830;2023-02-28T07:41:09;102571.78;;;8.50;43.96
63731;BME280;49747;51.334;6.830;2023-02-28T07:43:35;102569.06;;;8.78;43.36
63731;BME280;49747;51.334;6.830;2023-02-28T07:46:10;102569.16;;;9.23;42.37
63731;BME280;49747;51.334;6.830;2023-02-28T07:48:37;102566.41;;;9.50;41.63
63731;BME280;49747;51.334;6.830;2023-02-28T07:51:04;102573.94;;;10.04;40.89
63731;BME280;49747;51.334;6.830;2023-02-28T07:53:31;102565.19;;;10.67;40.51
63731;BME280;49747;51.334;6.830;2023-02-28T07:55:59;102563.91;;;10.55;39.58
63731;BME280;49747;51.334;6.830;2023-02-28T07:58:27;102563.47;;;10.66;39.06
63731;BME280;49747;51.334;6.830;2023-02-28T08:00:54;102554.75;;;11.22;39.08
63731;BME280;49747;51.334;6.830;2023-02-28T08:03:22;102557.13;;;11.47;37.73
63731;BME280;49747;51.334;6.830;2023-02-28T08:05:49;102551.38;;;12.11;36.47
63731;BME280;49747;51.334;6.830;2023-02-28T08:08:16;102563.16;;;12.42;35.86
63731;BME280;49747;51.334;6.830;2023-02-28T08:10:43;102563.94;;;12.78;34.75
63731;BME280;49747;51.334;6.830;2023-02-28T08:13:09;102566.53;;;13.13;34.25
63731;BME280;49747;51.334;6.830;2023-02-28T08:15:36;102569.75;;;13.53;33.91
63731;BME280;49747;51.334;6.830;2023-02-28T08:18:03;102559.91;;;13.85;32.77
63731;BME280;49747;51.334;6.830;2023-02-28T08:20:30;102559.63;;;14.05;32.67
63731;BME280;49747;51.334;6.830;2023-02-28T08:22:57;102548.91;;;14.21;31.80
63731;BME280;49747;51.334;6.830;2023-02-28T08:25:23;102553.69;;;14.30;31.75
63731;BME280;49747;51.334;6.830;2023-02-28T08:27:52;102561.38;;;14.67;30.87
63731;BME280;49747;51.334;6.830;2023-02-28T08:30:19;102571.31;;;14.79;31.53
63731;BME280;49747;51.334;6.830;2023-02-28T08:32:45;102562.69;;;14.60;30.71
63731;BME280;49747;51.334;6.830;2023-02-28T08:35:12;102568.66;;;14.79;30.56
63731;BME280;49747;51.334;6.830;2023-02-28T08:37:38;102553.44;;;14.65;30.62
63731;BME280;49747;51.334;6.830;2023-02-28T08:40:05;102566.19;;;14.90;30.08
63731;BME280;49747;51.334;6.830;2023-02-28T08:42:32;102566.50;;;15.28;29.60
63731;BME280;49747;51.334;6.830;2023-02-28T08:44:58;102567.66;;;15.24;29.36
63731;BME280;49747;51.334;6.830;2023-02-28T08:47:25;102562.66;;;15.18;29.70
63731;BME280;49747;51.334;6.830;2023-02-28T08:49:51;102569.25;;;15.41;28.52
63731;BME280;49747;51.334;6.830;2023-02-28T08:52:18;102570.97;;;15.42;28.38
63731;BME280;49747;51.334;6.830;2023-02-28T08:54:44;102573.94;;;15.23;28.29
63731;BME280;49747;51.334;6.830;2023-02-28T08:57:12;102571.16;;;15.39;28.27
63731;BME280;49747;51.334;6.830;2023-02-28T08:59:38;102572.41;;;15.34;28.11
63731;BME280;49747;51.334;6.830;2023-02-28T09:02:07;102567.06;;;15.19;28.39
63731;BME280;49747;51.334;6.830;2023-02-28T09:04:34;102563.59;;;15.32;28.48
63731;BME280;49747;51.334;6.830;2023-02-28T09:07:01;102567.91;;;15.48;28.30
63731;BME280;49747;51.334;6.830;2023-02-28T09:09:27;102549.66;;;15.41;27.65
63731;BME280;49747;51.334;6.830;2023-02-28T09:11:55;102558.72;;;15.52;27.15
63731;BME280;49747;51.334;6.830;2023-02-28T09:14:22;102549.84;;;15.38;27.58
63731;BME280;49747;51.334;6.830;2023-02-28T09:16:49;102563.91;;;15.41;27.56
63731;BME280;49747;51.334;6.830;2023-02-28T09:19:15;102540.94;;;14.80;28.13
63731;BME280;49747;51.334;6.830;2023-02-28T09:21:42;102545.78;;;14.59;28.25
63731;BME280;49747;51.334;6.830;2023-02-28T09:24:08;102553.69;;;14.00;28.58
63731;BME280;49747;51.334;6.830;2023-02-28T09:26:35;102557.56;;;13.31;29.83
63731;BME280;49747;51.334;6.830;2023-02-28T09:29:16;102553.41;;;12.75;29.84
63731;BME280;49747;51.334;6.830;2023-02-28T09:31:43;102558.44;;;12.64;30.34
63731;BME280;49747;51.334;6.830;2023-02-28T09:34:10;102551.47;;;12.44;30.31
63731;BME280;49747;51.334;6.830;2023-02-28T09:36:37;102546.63;;;12.18;29.60
63731;BME280;49747;51.334;6.830;2023-02-28T09:39:12;102560.25;;;11.93;30.78
63731;BME280;49747;51.334;6.830;2023-02-28T09:41:43;102554.38;;;11.67;30.96
63731;BME280;49747;51.334;6.830;2023-02-28T09:44:40;102553.38;;;11.51;31.32
63731;BME280;49747;51.334;6.830;2023-02-28T09:47:26;102552.34;;;11.72;31.21
63731;BME280;49747;51.334;6.830;2023-02-28T09:49:57;102560.59;;;12.04;31.42
63731;BME280;49747;51.334;6.830;2023-02-28T09:52:29;102544.09;;;12.32;30.77
63731;BME280;49747;51.334;6.830;2023-02-28T09:55:04;102547.94;;;12.78;30.70
63731;BME280;49747;51.334;6.830;2023-02-28T09:57:45;102550.81;;;12.91;29.93
63731;BME280;49747;51.334;6.830;2023-02-28T10:00:21;102553.47;;;12.91;29.84
63731;BME280;49747;51.334;6.830;2023-02-28T10:08:30;102551.59;;;12.93;29.72
63731;BME280;49747;51.334;6.830;2023-02-28T10:11:01;102548.63;;;12.82;29.70
63731;BME280;49747;51.334;6.830;2023-02-28T10:13:46;102563.66;;;11.58;29.91
63731;BME280;49747;51.334;6.830;2023-02-28T10:16:21;102561.25;;;10.55;31.62
63731;BME280;49747;51.334;6.830;2023-02-28T10:18:57;102569.13;;;10.36;32.36
63731;BME280;49747;51.334;6.830;2023-02-28T10:21:55;102572.09;;;9.62;32.40
63731;BME280;49747;51.334;6.830;2023-02-28T10:24:28;102563.44;;;8.62;34.68
63731;BME280;49747;51.334;6.830;2023-02-28T10:27:00;102577.41;;;8.12;34.48
63731;BME280;49747;51.334;6.830;2023-02-28T10:29:31;102569.09;;;8.51;34.05
63731;BME280;49747;51.334;6.830;2023-02-28T10:32:01;102555.44;;;8.37;34.70
63731;BME280;49747;51.334;6.830;2023-02-28T10:34:28;102550.31;;;8.31;34.71
63731;BME280;49747;51.334;6.830;2023-02-28T10:36:55;102547.88;;;8.25;34.72
63731;BME280;49747;51.334;6.830;2023-02-28T10:42:19;102560.44;;;7.92;35.40
63731;BME280;49747;51.334;6.830;2023-02-28T10:44:45;102564.88;;;7.91;35.36
63731;BME280;49747;51.334;6.830;2023-02-28T10:47:17;102559.59;;;7.89;35.88
63731;BME280;49747;51.334;6.830;2023-02-28T10:49:48;102561.16;;;6.78;36.85
63731;BME280;49747;51.334;6.830;2023-02-28T10:52:36;102568.94;;;7.14;36.90
63731;BME280;49747;51.334;6.830;2023-02-28T10:55:24;102557.97;;;6.98;36.70
63731;BME280;49747;51.334;6.830;2023-02-28T10:57:52;102542.13;;;6.97;37.02
63731;BME280;49747;51.334;6.830;2023-02-28T11:00:21;102554.50;;;6.63;37.04
63731;BME280;49747;51.334;6.830;2023-02-28T11:02:49;102546.19;;;6.77;37.01
63731;BME280;49747;51.334;6.830;2023-02-28T11:05:33;102554.34;;;6.35;37.32
63731;BME280;49747;51.334;6.830;2023-02-28T11:08:15;102536.38;;;6.82;37.00
63731;BME280;49747;51.334;6.830;2023-02-28T11:10:47;102524.13;;;6.47;37.14
63731;BME280;49747;51.334;6.830;2023-02-28T11:13:19;102511.84;;;7.08;36.87
63731;BME280;49747;51.334;6.830;2023-02-28T11:16:10;102532.94;;;7.10;36.56
63731;BME280;49747;51.334;6.830;2023-02-28T11:18:54;102534.03;;;7.03;36.22
63731;BME280;49747;51.334;6.830;2023-02-28T11:21:27;102546.34;;;6.38;36.97
63731;BME280;49747;51.334;6.830;2023-02-28T11:24:02;102531.59;;;7.26;36.08
63731;BME280;49747;51.334;6.830;2023-02-28T11:26:42;102541.34;;;7.24;35.46
63731;BME280;49747;51.334;6.830;2023-02-28T11:29:21;102530.06;;;7.18;35.66
63731;BME280;49747;51.334;6.830;2023-02-28T11:34:36;102529.09;;;7.50;35.92
63731;BME280;49747;51.334;6.830;2023-02-28T11:37:08;102529.31;;;7.44;35.52
63731;BME280;49747;51.334;6.830;2023-02-28T11:39:36;102520.75;;;7.63;35.58
63731;BME280;49747;51.334;6.830;2023-02-28T11:47:38;102523.28;;;7.95;35.18
63731;BME280;49747;51.334;6.830;2023-02-28T11:50:46;102525.69;;;8.02;35.02
63731;BME280;49747;51.334;6.830;2023-02-28T11:56:33;102520.00;;;8.14;34.89
63731;BME280;49747;51.334;6.830;2023-02-28T12:07:12;102501.56;;;8.11;35.01
63731;BME280;49747;51.334;6.830;2023-02-28T12:09:49;102504.34;;;8.07;35.49
63731;BME280;49747;51.334;6.830;2023-02-28T12:12:46;102511.78;;;8.49;34.59
63731;BME280;49747;51.334;6.830;2023-02-28T12:15:26;102496.47;;;8.57;34.20
63731;BME280;49747;51.334;6.830;2023-02-28T12:21:11;102494.09;;;8.74;34.71
63731;BME280;49747;51.334;6.830;2023-02-28T12:29:02;102482.13;;;8.37;34.92
63731;BME280;49747;51.334;6.830;2023-02-28T12:31:35;102476.53;;;8.47;35.13
63731;BME280;49747;51.334;6.830;2023-02-28T12:34:08;102484.38;;;8.50;34.35
63731;BME280;49747;51.334;6.830;2023-02-28T12:36:36;102463.41;;;8.17;34.81
63731;BME280;49747;51.334;6.830;2023-02-28T12:41:44;102471.97;;;7.72;35.07
63731;BME280;49747;51.334;6.830;2023-02-28T12:44:17;102454.00;;;7.82;35.67
63731;BME280;49747;51.334;6.830;2023-02-28T12:46:55;102458.94;;;8.19;35.58
63731;BME280;49747;51.334;6.830;2023-02-28T12:49:46;102446.91;;;7.84;35.88
63731;BME280;49747;51.334;6.830;2023-02-28T12:52:25;102430.78;;;8.17;35.55
63731;BME280;49747;51.334;6.830;2023-02-28T12:55:02;102422.28;;;8.32;35.27
63731;BME280;49747;51.334;6.830;2023-02-28T12:57:37;102440.94;;;8.04;35.26
63731;BME280;49747;51.334;6.830;2023-02-28T13:00:13;102441.94;;;7.73;36.28
63731;BME280;49747;51.334;6.830;2023-02-28T13:06:22;102437.69;;;7.43;36.32
63731;BME280;49747;51.334;6.830;2023-02-28T13:11:07;102438.44;;;7.46;37.08
63731;BME280;49747;51.334;6.830;2023-02-28T13:13:46;102428.97;;;7.39;37.04
63731;BME280;49747;51.334;6.830;2023-02-28T13:16:13;102422.91;;;7.62;36.17
63731;BME280;49747;51.334;6.830;2023-02-28T13:18:42;102419.47;;;7.86;36.42
63731;BME280;49747;51.334;6.830;2023-02-28T13:21:23;102413.88;;;7.96;35.68
63731;BME280;49747;51.334;6.830;2023-02-28T13:34:46;102410.69;;;7.86;36.77
63731;BME280;49747;51.334;6.830;2023-02-28T13:39:45;102408.28;;;7.52;37.81
63731;BME280;49747;51.334;6.830;2023-02-28T13:47:42;102400.03;;;7.61;37.14
63731;BME280;49747;51.334;6.830;2023-02-28T13:50:19;102408.19;;;7.55;37.01
63731;BME280;49747;51.334;6.830;2023-02-28T13:53:34;102397.09;;;7.44;37.60
63731;BME280;49747;51.334;6.830;2023-02-28T13:56:20;102392.50;;;7.49;38.07
63731;BME280;49747;51.334;6.830;2023-02-28T13:59:06;102393.13;;;7.30;37.71
63731;BME280;49747;51.334;6.830;2023-02-28T14:07:18;102392.59;;;7.19;37.96
63731;BME280;49747;51.334;6.830;2023-02-28T14:09:54;102381.69;;;7.56;38.19
63731;BME280;49747;51.334;6.830;2023-02-28T14:15:49;102367.25;;;7.92;37.67
63731;BME280;49747;51.334;6.830;2023-02-28T14:18:25;102358.53;;;8.13;37.49
63731;BME280;49747;51.334;6.830;2023-02-28T14:21:24;102368.06;;;8.19;37.37
63731;BME280;49747;51.334;6.830;2023-02-28T14:24:02;102367.03;;;7.98;37.53
63731;BME280;49747;51.334;6.830;2023-02-28T14:32:31;102367.91;;;7.98;37.63
63731;BME280;49747;51.334;6.830;2023-02-28T14:35:19;102360.34;;;7.87;37.62
63731;BME280;49747;51.334;6.830;2023-02-28T14:37:47;102382.78;;;7.76;38.02
63731;BME280;49747;51.334;6.830;2023-02-28T14:40:17;102372.81;;;7.57;38.43
63731;BME280;49747;51.334;6.830;2023-02-28T14:42:48;102375.19;;;7.67;38.28
63731;BME280;49747;51.334;6.830;2023-02-28T14:45:22;102368.25;;;7.62;38.64
63731;BME280;49747;51.334;6.830;2023-02-28T14:47:50;102378.63;;;7.42;38.71
63731;BME280;49747;51.334;6.830;2023-02-28T14:50:22;102366.91;;;7.76;38.54
63731;BME280;49747;51.334;6.830;2023-02-28T14:52:53;102370.50;;;7.75;38.77
63731;BME280;49747;51.334;6.830;2023-02-28T14:55:33;102370.78;;;7.65;38.83
63731;BME280;49747;51.334;6.830;2023-02-28T14:58:05;102358.72;;;7.83;38.81
63731;BME280;49747;51.334;6.830;2023-02-28T15:00:35;102359.09;;;7.98;38.50
63731;BME280;49747;51.334;6.830;2023-02-28T15:03:20;102366.81;;;7.79;38.63
63731;BME280;49747;51.334;6.830;2023-02-28T15:05:55;102358.81;;;7.80;38.92
63731;BME280;49747;51.334;6.830;2023-02-28T15:08:23;102355.16;;;7.84;38.85
63731;BME280;49747;51.334;6.830;2023-02-28T15:10:59;102368.88;;;7.71;39.45
63731;BME280;49747;51.334;6.830;2023-02-28T15:13:46;102360.59;;;7.55;39.76
63731;BME280;49747;51.334;6.830;2023-02-28T15:16:17;102356.59;;;7.68;39.57
63731;BME280;49747;51.334;6.830;2023-02-28T15:21:15;102356.06;;;7.83;39.66